sensor_id;sensor_type;location;lat;lon;timestamp;P1;durP1;ratioP1;P2;durP2;ratioP2
28180;SDS011;15464;50.988;10.318;2024-03-02T00:00:38;27.67;;;20.40;;
28180;SDS011;15464;50.988;10.318;2024-03-02T00:03:06;26.75;;;20.20;;
28180;SDS011;15464;50.988;10.318;2024-03-02T00:05:33;28.98;;;22.30;;
28180;SDS011;15464;50.988;10.318;2024-03-02T00:08:00;25.23;;;20.35;;
28180;SDS011;15464;50.988;10.318;2024-03-02T00:10:30;24.40;;;20.10;;
28180;SDS011;15464;50.988;10.318;2024-03-02T00:13:08;25.67;;;20.63;;
28180;SDS011;15464;50.988;10.318;2024-03-02T00:15:51;25.08;;;20.77;;
28180;SDS011;15464;50.988;10.318;2024-03-02T00:18:20;24.80;;;19.77;;
28180;SDS011;15464;50.988;10.318;2024-03-02T00:20:58;24.02;;;20.48;;
28180;SDS011;15464;50.988;10.318;2024-03-02T00:23:29;23.83;;;19.33;;
28180;SDS011;15464;50.988;10.318;2024-03-02T00:26:00;25.00;;;21.02;;
28180;SDS011;15464;50.988;10.318;2024-03-02T00:28:28;24.70;;;19.45;;
28180;SDS011;15464;50.988;10.318;2024-03-02T00:31:07;23.55;;;19.67;;
28180;SDS011;15464;50.988;10.318;2024-03-02T00:33:35;26.15;;;18.38;;
28180;SDS011;15464;50.988;10.318;2024-03-02T00:36:04;25.40;;;17.95;;
28180;SDS011;15464;50.988;10.318;2024-03-02T00:38:33;24.95;;;18.67;;
28180;SDS011;15464;50.988;10.318;2024-03-02T00:41:04;26.33;;;18.70;;
28180;SDS011;15464;50.988;10.318;2024-03-02T00:43:41;24.70;;;19.63;;
28180;SDS011;15464;50.988;10.318;2024-03-02T00:46:20;26.80;;;20.58;;
28180;SDS011;15464;50.988;10.318;2024-03-02T00:48:48;24.45;;;20.02;;
28180;SDS011;15464;50.988;10.318;2024-03-02T00:51:21;24.17;;;19.65;;
28180;SDS011;15464;50.988;10.318;2024-03-02T00:53:51;24.60;;;20.35;;
28180;SDS011;15464;50.988;10.318;2024-03-02T00:58:46;25.50;;;18.65;;
28180;SDS011;15464;50.988;10.318;2024-03-02T01:01:13;25.10;;;19.02;;
28180;SDS011;15464;50.988;10.318;2024-03-02T01:03:40;24.73;;;20.05;;
28180;SDS011;15464;50.988;10.318;2024-03-02T01:06:08;24.88;;;18.98;;
28180;SDS011;15464;50.988;10.318;2024-03-02T01:08:35;22.73;;;18.48;;
28180;SDS011;15464;50.988;10.318;2024-03-02T01:11:02;22.75;;;18.90;;
28180;SDS011;15464;50.988;10.318;2024-03-02T01:13:29;23.67;;;19.60;;
28180;SDS011;15464;50.988;10.318;2024-03-02T01:15:57;23.92;;;19.58;;
28180;SDS011;15464;50.988;10.318;2024-03-02T01:18:24;25.30;;;19.02;;
28180;SDS011;15464;50.988;10.318;2024-03-02T01:20:52;26.13;;;19.15;;
28180;SDS011;15464;50.988;10.318;2024-03-02T01:23:19;25.63;;;20.77;;
28180;SDS011;15464;50.988;10.318;2024-03-02T01:25:49;23.02;;;18.98;;
28180;SDS011;15464;50.988;10.318;2024-03-02T01:28:18;24.25;;;20.17;;
28180;SDS011;15464;50.988;10.318;2024-03-02T01:30:47;24.92;;;20.73;;
28180;SDS011;15464;50.988;10.318;2024-03-02T01:33:14;24.95;;;19.13;;
28180;SDS011;15464;50.988;10.318;2024-03-02T01:35:43;25.23;;;20.13;;
28180;SDS011;15464;50.988;10.318;2024-03-02T01:38:10;26.05;;;20.42;;
28180;SDS011;15464;50.988;10.318;2024-03-02T01:40:37;26.30;;;19.65;;
28180;SDS011;15464;50.988;10.318;2024-03-02T01:43:05;25.52;;;20.08;;
28180;SDS011;15464;50.988;10.318;2024-03-02T01:45:32;26.33;;;19.60;;
28180;SDS011;15464;50.988;10.318;2024-03-02T01:48:00;24.83;;;19.27;;
28180;SDS011;15464;50.988;10.318;2024-03-02T01:50:27;26.45;;;20.48;;
28180;SDS011;15464;50.988;10.318;2024-03-02T01:52:55;28.33;;;21.25;;
28180;SDS011;15464;50.988;10.318;2024-03-02T01:55:22;28.45;;;19.98;;
28180;SDS011;15464;50.988;10.318;2024-03-02T01:57:49;27.30;;;20.77;;
28180;SDS011;15464;50.988;10.318;2024-03-02T02:00:17;25.98;;;19.85;;
28180;SDS011;15464;50.988;10.318;2024-03-02T02:02:48;21.93;;;17.37;;
28180;SDS011;15464;50.988;10.318;2024-03-02T02:05:16;24.88;;;19.15;;
28180;SDS011;15464;50.988;10.318;2024-03-02T02:07:43;25.58;;;20.27;;
28180;SDS011;15464;50.988;10.318;2024-03-02T02:10:10;24.60;;;19.80;;
28180;SDS011;15464;50.988;10.318;2024-03-02T02:12:37;23.33;;;18.70;;
28180;SDS011;15464;50.988;10.318;2024-03-02T02:15:27;25.55;;;19.55;;
28180;SDS011;15464;50.988;10.318;2024-03-02T02:17:52;25.48;;;18.38;;
28180;SDS011;15464;50.988;10.318;2024-03-02T02:20:19;28.10;;;20.73;;
28180;SDS011;15464;50.988;10.318;2024-03-02T02:22:59;25.10;;;18.80;;
28180;SDS011;15464;50.988;10.318;2024-03-02T02:25:27;27.73;;;20.23;;
28180;SDS011;15464;50.988;10.318;2024-03-02T02:27:55;27.90;;;20.38;;
28180;SDS011;15464;50.988;10.318;2024-03-02T02:30:27;25.77;;;18.98;;
28180;SDS011;15464;50.988;10.318;2024-03-02T02:32:55;23.52;;;18.17;;
28180;SDS011;15464;50.988;10.318;2024-03-02T02:35:22;24.77;;;18.67;;
28180;SDS011;15464;50.988;10.318;2024-03-02T02:37:51;27.10;;;19.73;;
28180;SDS011;15464;50.988;10.318;2024-03-02T02:42:46;25.50;;;18.63;;
28180;SDS011;15464;50.988;10.318;2024-03-02T02:45:14;24.95;;;19.63;;
28180;SDS011;15464;50.988;10.318;2024-03-02T02:47:42;27.85;;;20.77;;
28180;SDS011;15464;50.988;10.318;2024-03-02T02:50:10;30.67;;;20.38;;
28180;SDS011;15464;50.988;10.318;2024-03-02T02:52:38;25.30;;;20.70;;
28180;SDS011;15464;50.988;10.318;2024-03-02T02:55:07;27.83;;;20.52;;
28180;SDS011;15464;50.988;10.318;2024-03-02T02:57:35;26.40;;;20.43;;
28180;SDS011;15464;50.988;10.318;2024-03-02T03:00:05;27.20;;;19.80;;
28180;SDS011;15464;50.988;10.318;2024-03-02T03:02:37;24.38;;;19.40;;
28180;SDS011;15464;50.988;10.318;2024-03-02T03:05:05;25.20;;;19.25;;
28180;SDS011;15464;50.988;10.318;2024-03-02T03:07:33;26.20;;;20.15;;
28180;SDS011;15464;50.988;10.318;2024-03-02T03:10:03;28.63;;;20.20;;
28180;SDS011;15464;50.988;10.318;2024-03-02T03:12:30;24.70;;;18.95;;
28180;SDS011;15464;50.988;10.318;2024-03-02T03:15:00;24.67;;;18.38;;
28180;SDS011;15464;50.988;10.318;2024-03-02T03:17:27;22.85;;;18.48;;
28180;SDS011;15464;50.988;10.318;2024-03-02T03:19:54;27.13;;;20.08;;
28180;SDS011;15464;50.988;10.318;2024-03-02T03:22:21;26.65;;;18.33;;
28180;SDS011;15464;50.988;10.318;2024-03-02T03:24:48;24.50;;;18.10;;
28180;SDS011;15464;50.988;10.318;2024-03-02T03:27:15;25.42;;;19.27;;
28180;SDS011;15464;50.988;10.318;2024-03-02T03:29:41;23.88;;;18.63;;
28180;SDS011;15464;50.988;10.318;2024-03-02T03:32:08;25.15;;;18.45;;
28180;SDS011;15464;50.988;10.318;2024-03-02T03:34:35;24.05;;;18.60;;
28180;SDS011;15464;50.988;10.318;2024-03-02T03:37:02;24.20;;;17.95;;
28180;SDS011;15464;50.988;10.318;2024-03-02T03:39:29;21.90;;;17.05;;
28180;SDS011;15464;50.988;10.318;2024-03-02T03:41:56;23.08;;;18.00;;
28180;SDS011;15464;50.988;10.318;2024-03-02T03:44:22;21.90;;;18.38;;
28180;SDS011;15464;50.988;10.318;2024-03-02T03:46:49;24.98;;;18.65;;
28180;SDS011;15464;50.988;10.318;2024-03-02T03:49:16;25.65;;;19.70;;
28180;SDS011;15464;50.988;10.318;2024-03-02T03:51:43;27.23;;;20.48;;
28180;SDS011;15464;50.988;10.318;2024-03-02T03:54:10;31.42;;;23.00;;
28180;SDS011;15464;50.988;10.318;2024-03-02T03:56:37;26.73;;;20.58;;
28180;SDS011;15464;50.988;10.318;2024-03-02T03:59:04;26.30;;;20.38;;
28180;SDS011;15464;50.988;10.318;2024-03-02T04:01:31;27.65;;;21.02;;
28180;SDS011;15464;50.988;10.318;2024-03-02T04:03:58;28.25;;;21.42;;
28180;SDS011;15464;50.988;10.318;2024-03-02T04:06:25;25.90;;;19.42;;
28180;SDS011;15464;50.988;10.318;2024-03-02T04:08:52;30.38;;;22.17;;
28180;SDS011;15464;50.988;10.318;2024-03-02T04:11:18;26.77;;;21.17;;
28180;SDS011;15464;50.988;10.318;2024-03-02T04:13:45;28.67;;;21.88;;
28180;SDS011;15464;50.988;10.318;2024-03-02T04:16:12;27.15;;;20.42;;
28180;SDS011;15464;50.988;10.318;2024-03-02T04:18:38;28.83;;;21.30;;
28180;SDS011;15464;50.988;10.318;2024-03-02T04:21:06;28.13;;;21.63;;
28180;SDS011;15464;50.988;10.318;2024-03-02T04:23:32;28.17;;;22.08;;
28180;SDS011;15464;50.988;10.318;2024-03-02T04:25:59;27.73;;;21.10;;
28180;SDS011;15464;50.988;10.318;2024-03-02T04:28:26;30.70;;;21.17;;
28180;SDS011;15464;50.988;10.318;2024-03-02T04:30:52;29.23;;;20.67;;
28180;SDS011;15464;50.988;10.318;2024-03-02T04:33:19;30.20;;;21.98;;
28180;SDS011;15464;50.988;10.318;2024-03-02T04:35:46;32.58;;;21.75;;
28180;SDS011;15464;50.988;10.318;2024-03-02T04:38:13;30.63;;;22.67;;
28180;SDS011;15464;50.988;10.318;2024-03-02T04:40:40;30.75;;;22.02;;
28180;SDS011;15464;50.988;10.318;2024-03-02T04:43:06;29.42;;;21.60;;
28180;SDS011;15464;50.988;10.318;2024-03-02T04:45:37;25.95;;;20.38;;
28180;SDS011;15464;50.988;10.318;2024-03-02T04:48:05;29.27;;;22.40;;
28180;SDS011;15464;50.988;10.318;2024-03-02T04:50:32;29.70;;;21.10;;
28180;SDS011;15464;50.988;10.318;2024-03-02T04:52:59;30.00;;;21.48;;
28180;SDS011;15464;50.988;10.318;2024-03-02T04:55:25;26.58;;;21.17;;
28180;SDS011;15464;50.988;10.318;2024-03-02T04:57:55;30.55;;;21.80;;
28180;SDS011;15464;50.988;10.318;2024-03-02T05:00:22;27.73;;;20.75;;
28180;SDS011;15464;50.988;10.318;2024-03-02T05:02:49;26.95;;;21.20;;
28180;SDS011;15464;50.988;10.318;2024-03-02T05:05:17;29.85;;;21.38;;
28180;SDS011;15464;50.988;10.318;2024-03-02T05:07:44;28.08;;;21.05;;
28180;SDS011;15464;50.988;10.318;2024-03-02T05:10:11;28.13;;;22.38;;
28180;SDS011;15464;50.988;10.318;2024-03-02T05:12:38;28.98;;;21.45;;
28180;SDS011;15464;50.988;10.318;2024-03-02T05:15:11;26.90;;;21.50;;
28180;SDS011;15464;50.988;10.318;2024-03-02T05:17:40;27.65;;;21.95;;
28180;SDS011;15464;50.988;10.318;2024-03-02T05:20:11;28.35;;;21.10;;
28180;SDS011;15464;50.988;10.318;2024-03-02T05:22:38;29.17;;;22.45;;
28180;SDS011;15464;50.988;10.318;2024-03-02T05:25:06;28.83;;;21.42;;
28180;SDS011;15464;50.988;10.318;2024-03-02T05:27:33;27.60;;;20.75;;
28180;SDS011;15464;50.988;10.318;2024-03-02T05:30:00;27.90;;;21.30;;
28180;SDS011;15464;50.988;10.318;2024-03-02T05:32:27;29.20;;;22.75;;
28180;SDS011;15464;50.988;10.318;2024-03-02T05:34:54;30.63;;;21.60;;
28180;SDS011;15464;50.988;10.318;2024-03-02T05:37:21;30.27;;;22.17;;
28180;SDS011;15464;50.988;10.318;2024-03-02T05:39:48;26.92;;;20.63;;
28180;SDS011;15464;50.988;10.318;2024-03-02T05:42:15;27.92;;;20.60;;
28180;SDS011;15464;50.988;10.318;2024-03-02T05:44:43;28.55;;;21.73;;
28180;SDS011;15464;50.988;10.318;2024-03-02T05:47:10;31.95;;;23.02;;
28180;SDS011;15464;50.988;10.318;2024-03-02T05:49:36;31.48;;;23.65;;
28180;SDS011;15464;50.988;10.318;2024-03-02T05:52:03;31.05;;;23.23;;
28180;SDS011;15464;50.988;10.318;2024-03-02T05:54:30;32.08;;;23.15;;
28180;SDS011;15464;50.988;10.318;2024-03-02T05:56:57;30.13;;;21.80;;
28180;SDS011;15464;50.988;10.318;2024-03-02T05:59:43;32.28;;;23.75;;
28180;SDS011;15464;50.988;10.318;2024-03-02T06:04:39;32.97;;;24.02;;
28180;SDS011;15464;50.988;10.318;2024-03-02T06:07:06;32.00;;;24.25;;
28180;SDS011;15464;50.988;10.318;2024-03-02T06:09:33;30.55;;;22.38;;
28180;SDS011;15464;50.988;10.318;2024-03-02T06:11:59;31.63;;;23.13;;
28180;SDS011;15464;50.988;10.318;2024-03-02T06:14:26;33.05;;;23.10;;
28180;SDS011;15464;50.988;10.318;2024-03-02T06:16:53;28.58;;;21.75;;
28180;SDS011;15464;50.988;10.318;2024-03-02T06:19:20;28.10;;;21.35;;
28180;SDS011;15464;50.988;10.318;2024-03-02T06:21:46;28.90;;;21.20;;
28180;SDS011;15464;50.988;10.318;2024-03-02T06:24:13;29.48;;;21.67;;
28180;SDS011;15464;50.988;10.318;2024-03-02T06:26:40;28.20;;;21.25;;
28180;SDS011;15464;50.988;10.318;2024-03-02T06:29:07;29.80;;;22.33;;
28180;SDS011;15464;50.988;10.318;2024-03-02T06:31:34;29.38;;;22.25;;
28180;SDS011;15464;50.988;10.318;2024-03-02T06:34:01;27.83;;;19.95;;
28180;SDS011;15464;50.988;10.318;2024-03-02T06:36:30;27.45;;;19.85;;
28180;SDS011;15464;50.988;10.318;2024-03-02T06:38:57;28.83;;;21.85;;
28180;SDS011;15464;50.988;10.318;2024-03-02T06:41:23;29.48;;;22.13;;
28180;SDS011;15464;50.988;10.318;2024-03-02T06:43:50;27.08;;;20.95;;
28180;SDS011;15464;50.988;10.318;2024-03-02T06:46:20;25.80;;;20.77;;
28180;SDS011;15464;50.988;10.318;2024-03-02T06:48:47;29.92;;;21.77;;
28180;SDS011;15464;50.988;10.318;2024-03-02T06:51:14;29.38;;;22.02;;
28180;SDS011;15464;50.988;10.318;2024-03-02T06:53:42;26.83;;;20.58;;
28180;SDS011;15464;50.988;10.318;2024-03-02T06:56:09;26.63;;;20.02;;
28180;SDS011;15464;50.988;10.318;2024-03-02T06:58:35;28.52;;;20.85;;
28180;SDS011;15464;50.988;10.318;2024-03-02T07:01:02;26.77;;;20.38;;
28180;SDS011;15464;50.988;10.318;2024-03-02T07:03:29;29.17;;;21.40;;
28180;SDS011;15464;50.988;10.318;2024-03-02T07:05:56;28.92;;;22.77;;
28180;SDS011;15464;50.988;10.318;2024-03-02T07:08:23;28.13;;;21.52;;
28180;SDS011;15464;50.988;10.318;2024-03-02T07:10:50;26.45;;;20.90;;
28180;SDS011;15464;50.988;10.318;2024-03-02T07:13:17;28.25;;;22.65;;
28180;SDS011;15464;50.988;10.318;2024-03-02T07:15:43;28.15;;;20.80;;
28180;SDS011;15464;50.988;10.318;2024-03-02T07:18:36;33.22;;;21.38;;
28180;SDS011;15464;50.988;10.318;2024-03-02T07:21:08;28.15;;;21.60;;
28180;SDS011;15464;50.988;10.318;2024-03-02T07:23:35;29.77;;;21.67;;
28180;SDS011;15464;50.988;10.318;2024-03-02T07:26:01;26.67;;;19.83;;
28180;SDS011;15464;50.988;10.318;2024-03-02T07:28:32;26.92;;;19.67;;
28180;SDS011;15464;50.988;10.318;2024-03-02T07:33:27;29.27;;;22.25;;
28180;SDS011;15464;50.988;10.318;2024-03-02T07:35:54;27.38;;;20.77;;
28180;SDS011;15464;50.988;10.318;2024-03-02T07:38:22;29.10;;;21.80;;
28180;SDS011;15464;50.988;10.318;2024-03-02T07:40:49;28.27;;;21.20;;
28180;SDS011;15464;50.988;10.318;2024-03-02T07:43:17;31.75;;;23.75;;
28180;SDS011;15464;50.988;10.318;2024-03-02T07:45:45;29.60;;;21.77;;
28180;SDS011;15464;50.988;10.318;2024-03-02T07:48:13;28.70;;;21.20;;
28180;SDS011;15464;50.988;10.318;2024-03-02T07:50:40;28.35;;;20.92;;
28180;SDS011;15464;50.988;10.318;2024-03-02T07:53:07;26.50;;;19.67;;
28180;SDS011;15464;50.988;10.318;2024-03-02T07:55:34;23.50;;;19.95;;
28180;SDS011;15464;50.988;10.318;2024-03-02T07:58:01;26.98;;;20.95;;
28180;SDS011;15464;50.988;10.318;2024-03-02T08:00:28;23.55;;;19.63;;
28180;SDS011;15464;50.988;10.318;2024-03-02T08:02:55;25.80;;;19.88;;
28180;SDS011;15464;50.988;10.318;2024-03-02T08:05:22;23.63;;;18.67;;
28180;SDS011;15464;50.988;10.318;2024-03-02T08:07:49;26.00;;;21.13;;
28180;SDS011;15464;50.988;10.318;2024-03-02T08:10:19;25.42;;;20.05;;
28180;SDS011;15464;50.988;10.318;2024-03-02T08:12:46;27.70;;;21.77;;
28180;SDS011;15464;50.988;10.318;2024-03-02T08:15:13;28.95;;;21.23;;
28180;SDS011;15464;50.988;10.318;2024-03-02T08:17:40;26.67;;;20.52;;
28180;SDS011;15464;50.988;10.318;2024-03-02T08:20:15;23.48;;;19.05;;
28180;SDS011;15464;50.988;10.318;2024-03-02T08:22:41;25.33;;;18.98;;
28180;SDS011;15464;50.988;10.318;2024-03-02T08:25:08;23.75;;;18.25;;
28180;SDS011;15464;50.988;10.318;2024-03-02T08:27:36;21.75;;;16.77;;
28180;SDS011;15464;50.988;10.318;2024-03-02T08:30:03;20.77;;;17.38;;
28180;SDS011;15464;50.988;10.318;2024-03-02T08:32:33;23.55;;;17.58;;
28180;SDS011;15464;50.988;10.318;2024-03-02T08:35:00;22.67;;;17.70;;
28180;SDS011;15464;50.988;10.318;2024-03-02T08:37:27;25.13;;;17.58;;
28180;SDS011;15464;50.988;10.318;2024-03-02T08:39:54;20.80;;;16.92;;
28180;SDS011;15464;50.988;10.318;2024-03-02T08:42:21;19.70;;;16.48;;
28180;SDS011;15464;50.988;10.318;2024-03-02T08:44:49;20.48;;;15.98;;
28180;SDS011;15464;50.988;10.318;2024-03-02T08:47:16;20.35;;;15.52;;
28180;SDS011;15464;50.988;10.318;2024-03-02T08:49:43;20.50;;;16.63;;
28180;SDS011;15464;50.988;10.318;2024-03-02T08:52:09;16.98;;;14.88;;
28180;SDS011;15464;50.988;10.318;2024-03-02T08:54:36;19.67;;;15.45;;
28180;SDS011;15464;50.988;10.318;2024-03-02T08:57:04;17.92;;;14.35;;
28180;SDS011;15464;50.988;10.318;2024-03-02T08:59:31;21.08;;;15.77;;
28180;SDS011;15464;50.988;10.318;2024-03-02T09:01:58;17.55;;;15.20;;
28180;SDS011;15464;50.988;10.318;2024-03-02T09:04:25;19.52;;;15.40;;
28180;SDS011;15464;50.988;10.318;2024-03-02T09:06:55;17.00;;;14.85;;
28180;SDS011;15464;50.988;10.318;2024-03-02T09:09:22;15.38;;;12.75;;
28180;SDS011;15464;50.988;10.318;2024-03-02T09:11:49;17.02;;;13.98;;
28180;SDS011;15464;50.988;10.318;2024-03-02T09:14:16;17.50;;;14.10;;
28180;SDS011;15464;50.988;10.318;2024-03-02T09:16:42;15.43;;;13.27;;
28180;SDS011;15464;50.988;10.318;2024-03-02T09:19:09;15.70;;;13.55;;
28180;SDS011;15464;50.988;10.318;2024-03-02T09:21:36;16.67;;;13.07;;
28180;SDS011;15464;50.988;10.318;2024-03-02T09:24:04;16.13;;;12.60;;
28180;SDS011;15464;50.988;10.318;2024-03-02T09:26:33;13.90;;;12.15;;
28180;SDS011;15464;50.988;10.318;2024-03-02T09:29:00;13.57;;;11.93;;
28180;SDS011;15464;50.988;10.318;2024-03-02T09:31:26;14.93;;;12.02;;
28180;SDS011;15464;50.988;10.318;2024-03-02T09:33:53;14.77;;;11.73;;
28180;SDS011;15464;50.988;10.318;2024-03-02T09:36:21;14.98;;;12.35;;
28180;SDS011;15464;50.988;10.318;2024-03-02T09:38:48;13.52;;;11.20;;
28180;SDS011;15464;50.988;10.318;2024-03-02T09:41:15;13.98;;;11.80;;
28180;SDS011;15464;50.988;10.318;2024-03-02T09:43:42;15.05;;;11.88;;
28180;SDS011;15464;50.988;10.318;2024-03-02T09:46:10;15.18;;;11.73;;
28180;SDS011;15464;50.988;10.318;2024-03-02T09:48:37;17.40;;;12.60;;
28180;SDS011;15464;50.988;10.318;2024-03-02T09:51:05;16.77;;;12.65;;
28180;SDS011;15464;50.988;10.318;2024-03-02T09:53:32;14.75;;;12.15;;
28180;SDS011;15464;50.988;10.318;2024-03-02T09:56:00;14.05;;;11.77;;
28180;SDS011;15464;50.988;10.318;2024-03-02T09:58:27;15.40;;;11.73;;
28180;SDS011;15464;50.988;10.318;2024-03-02T10:00:55;13.27;;;11.23;;
28180;SDS011;15464;50.988;10.318;2024-03-02T10:03:23;13.48;;;11.20;;
28180;SDS011;15464;50.988;10.318;2024-03-02T10:05:53;13.50;;;11.57;;
28180;SDS011;15464;50.988;10.318;2024-03-02T10:08:19;14.20;;;12.10;;
28180;SDS011;15464;50.988;10.318;2024-03-02T10:10:46;13.68;;;11.23;;
28180;SDS011;15464;50.988;10.318;2024-03-02T10:13:13;13.80;;;11.63;;
28180;SDS011;15464;50.988;10.318;2024-03-02T10:15:40;13.50;;;11.32;;
28180;SDS011;15464;50.988;10.318;2024-03-02T10:18:12;14.90;;;11.55;;
28180;SDS011;15464;50.988;10.318;2024-03-02T10:20:39;14.45;;;10.98;;
28180;SDS011;15464;50.988;10.318;2024-03-02T10:23:11;15.95;;;11.25;;
28180;SDS011;15464;50.988;10.318;2024-03-02T10:25:40;13.40;;;10.75;;
28180;SDS011;15464;50.988;10.318;2024-03-02T10:28:20;12.70;;;10.63;;
28180;SDS011;15464;50.988;10.318;2024-03-02T10:30:47;13.63;;;10.38;;
28180;SDS011;15464;50.988;10.318;2024-03-02T10:33:17;13.15;;;10.73;;
28180;SDS011;15464;50.988;10.318;2024-03-02T10:35:43;11.80;;;9.18;;
28180;SDS011;15464;50.988;10.318;2024-03-02T10:38:11;12.18;;;10.20;;
28180;SDS011;15464;50.988;10.318;2024-03-02T10:40:38;12.05;;;9.95;;
28180;SDS011;15464;50.988;10.318;2024-03-02T10:43:04;11.30;;;9.52;;
28180;SDS011;15464;50.988;10.318;2024-03-02T10:45:34;10.40;;;8.75;;
28180;SDS011;15464;50.988;10.318;2024-03-02T10:48:01;12.90;;;9.45;;
28180;SDS011;15464;50.988;10.318;2024-03-02T10:50:29;11.00;;;9.55;;
28180;SDS011;15464;50.988;10.318;2024-03-02T10:52:57;8.85;;;6.85;;
28180;SDS011;15464;50.988;10.318;2024-03-02T10:55:23;8.68;;;7.65;;
28180;SDS011;15464;50.988;10.318;2024-03-02T10:57:51;10.32;;;7.57;;
28180;SDS011;15464;50.988;10.318;2024-03-02T11:00:20;9.75;;;7.68;;
28180;SDS011;15464;50.988;10.318;2024-03-02T11:02:56;10.00;;;8.55;;
28180;SDS011;15464;50.988;10.318;2024-03-02T11:05:41;8.50;;;7.57;;
28180;SDS011;15464;50.988;10.318;2024-03-02T11:08:14;9.48;;;7.32;;
28180;SDS011;15464;50.988;10.318;2024-03-02T11:11:09;9.35;;;7.47;;
28180;SDS011;15464;50.988;10.318;2024-03-02T11:13:47;8.35;;;6.95;;
28180;SDS011;15464;50.988;10.318;2024-03-02T11:16:20;8.55;;;7.65;;
28180;SDS011;15464;50.988;10.318;2024-03-02T11:18:56;9.07;;;7.68;;
28180;SDS011;15464;50.988;10.318;2024-03-02T11:21:25;8.20;;;6.80;;
28180;SDS011;15464;50.988;10.318;2024-03-02T11:23:52;8.55;;;7.03;;
28180;SDS011;15464;50.988;10.318;2024-03-02T11:26:19;7.55;;;6.75;;
28180;SDS011;15464;50.988;10.318;2024-03-02T11:28:47;10.23;;;8.23;;
28180;SDS011;15464;50.988;10.318;2024-03-02T11:31:14;9.75;;;7.88;;
28180;SDS011;15464;50.988;10.318;2024-03-02T11:33:41;8.40;;;7.18;;
28180;SDS011;15464;50.988;10.318;2024-03-02T11:36:08;9.48;;;7.53;;
28180;SDS011;15464;50.988;10.318;2024-03-02T11:38:37;9.20;;;7.38;;
28180;SDS011;15464;50.988;10.318;2024-03-02T11:41:07;8.27;;;7.10;;
28180;SDS011;15464;50.988;10.318;2024-03-02T11:43:38;8.73;;;7.00;;
28180;SDS011;15464;50.988;10.318;2024-03-02T11:46:06;7.88;;;7.07;;
28180;SDS011;15464;50.988;10.318;2024-03-02T11:48:38;7.70;;;6.38;;
28180;SDS011;15464;50.988;10.318;2024-03-02T11:53:32;9.82;;;6.75;;
28180;SDS011;15464;50.988;10.318;2024-03-02T11:56:01;7.82;;;6.28;;
28180;SDS011;15464;50.988;10.318;2024-03-02T11:58:28;7.32;;;6.15;;
28180;SDS011;15464;50.988;10.318;2024-03-02T12:00:56;7.20;;;6.50;;
28180;SDS011;15464;50.988;10.318;2024-03-02T12:03:24;8.77;;;6.82;;
28180;SDS011;15464;50.988;10.318;2024-03-02T12:05:55;6.95;;;6.25;;
28180;SDS011;15464;50.988;10.318;2024-03-02T12:08:22;6.90;;;6.20;;
28180;SDS011;15464;50.988;10.318;2024-03-02T12:10:57;6.43;;;5.70;;
28180;SDS011;15464;50.988;10.318;2024-03-02T12:13:29;6.60;;;5.78;;
28180;SDS011;15464;50.988;10.318;2024-03-02T12:15:56;6.13;;;5.50;;
28180;SDS011;15464;50.988;10.318;2024-03-02T12:18:23;6.15;;;5.55;;
28180;SDS011;15464;50.988;10.318;2024-03-02T12:20:51;6.68;;;5.75;;
28180;SDS011;15464;50.988;10.318;2024-03-02T12:23:19;5.82;;;5.10;;
28180;SDS011;15464;50.988;10.318;2024-03-02T12:25:46;7.10;;;5.65;;
28180;SDS011;15464;50.988;10.318;2024-03-02T12:28:13;6.20;;;5.13;;
28180;SDS011;15464;50.988;10.318;2024-03-02T12:30:40;5.97;;;5.38;;
28180;SDS011;15464;50.988;10.318;2024-03-02T12:33:06;6.40;;;5.13;;
28180;SDS011;15464;50.988;10.318;2024-03-02T12:35:33;7.47;;;5.80;;
28180;SDS011;15464;50.988;10.318;2024-03-02T12:38:02;6.63;;;5.60;;
28180;SDS011;15464;50.988;10.318;2024-03-02T12:40:30;6.85;;;5.43;;
28180;SDS011;15464;50.988;10.318;2024-03-02T12:42:57;5.90;;;5.30;;
28180;SDS011;15464;50.988;10.318;2024-03-02T12:45:24;5.38;;;4.88;;
28180;SDS011;15464;50.988;10.318;2024-03-02T12:47:51;6.82;;;5.30;;
28180;SDS011;15464;50.988;10.318;2024-03-02T12:50:19;6.00;;;5.07;;
28180;SDS011;15464;50.988;10.318;2024-03-02T12:52:53;5.78;;;5.00;;
28180;SDS011;15464;50.988;10.318;2024-03-02T12:55:21;7.45;;;5.68;;
28180;SDS011;15464;50.988;10.318;2024-03-02T12:57:50;6.25;;;5.15;;
28180;SDS011;15464;50.988;10.318;2024-03-02T13:00:18;6.50;;;5.03;;
28180;SDS011;15464;50.988;10.318;2024-03-02T13:02:47;5.38;;;4.70;;
28180;SDS011;15464;50.988;10.318;2024-03-02T13:05:15;4.40;;;3.92;;
28180;SDS011;15464;50.988;10.318;2024-03-02T13:07:42;5.47;;;4.68;;
28180;SDS011;15464;50.988;10.318;2024-03-02T13:10:09;6.25;;;3.97;;
28180;SDS011;15464;50.988;10.318;2024-03-02T13:12:36;4.47;;;4.07;;
28180;SDS011;15464;50.988;10.318;2024-03-02T13:15:04;5.63;;;4.28;;
28180;SDS011;15464;50.988;10.318;2024-03-02T13:17:34;5.82;;;4.72;;
28180;SDS011;15464;50.988;10.318;2024-03-02T13:20:04;5.13;;;4.55;;
28180;SDS011;15464;50.988;10.318;2024-03-02T13:22:37;6.43;;;4.57;;
28180;SDS011;15464;50.988;10.318;2024-03-02T13:25:04;4.25;;;3.85;;
28180;SDS011;15464;50.988;10.318;2024-03-02T13:27:33;4.70;;;4.20;;
28180;SDS011;15464;50.988;10.318;2024-03-02T13:30:01;3.90;;;3.50;;
28180;SDS011;15464;50.988;10.318;2024-03-02T13:32:29;5.13;;;3.80;;
28180;SDS011;15464;50.988;10.318;2024-03-02T13:34:56;4.68;;;3.90;;
28180;SDS011;15464;50.988;10.318;2024-03-02T13:37:22;5.28;;;4.25;;
28180;SDS011;15464;50.988;10.318;2024-03-02T13:39:50;4.85;;;3.90;;
28180;SDS011;15464;50.988;10.318;2024-03-02T13:42:16;4.22;;;3.83;;
28180;SDS011;15464;50.988;10.318;2024-03-02T13:44:43;3.92;;;3.47;;
28180;SDS011;15464;50.988;10.318;2024-03-02T13:47:16;5.47;;;3.80;;
28180;SDS011;15464;50.988;10.318;2024-03-02T13:49:43;3.30;;;2.88;;
28180;SDS011;15464;50.988;10.318;2024-03-02T13:52:15;4.03;;;3.53;;
28180;SDS011;15464;50.988;10.318;2024-03-02T13:54:44;3.17;;;2.88;;
28180;SDS011;15464;50.988;10.318;2024-03-02T13:57:12;4.17;;;3.17;;
28180;SDS011;15464;50.988;10.318;2024-03-02T13:59:40;3.58;;;2.97;;
28180;SDS011;15464;50.988;10.318;2024-03-02T14:02:08;3.67;;;2.95;;
28180;SDS011;15464;50.988;10.318;2024-03-02T14:04:35;3.55;;;3.20;;
28180;SDS011;15464;50.988;10.318;2024-03-02T14:07:03;3.85;;;2.75;;
28180;SDS011;15464;50.988;10.318;2024-03-02T14:09:30;3.58;;;2.78;;
28180;SDS011;15464;50.988;10.318;2024-03-02T14:11:57;2.88;;;2.58;;
28180;SDS011;15464;50.988;10.318;2024-03-02T14:14:23;4.80;;;3.20;;
28180;SDS011;15464;50.988;10.318;2024-03-02T14:16:51;3.38;;;2.75;;
28180;SDS011;15464;50.988;10.318;2024-03-02T14:19:18;3.53;;;3.03;;
28180;SDS011;15464;50.988;10.318;2024-03-02T14:21:45;3.55;;;3.17;;
28180;SDS011;15464;50.988;10.318;2024-03-02T14:24:13;3.80;;;3.28;;
28180;SDS011;15464;50.988;10.318;2024-03-02T14:26:40;3.90;;;2.90;;
28180;SDS011;15464;50.988;10.318;2024-03-02T14:29:07;4.50;;;3.28;;
28180;SDS011;15464;50.988;10.318;2024-03-02T14:31:34;3.60;;;3.08;;
28180;SDS011;15464;50.988;10.318;2024-03-02T14:34:01;3.70;;;3.30;;